sensor_id;sensor_type;location;lat;lon;timestamp;P1;durP1;ratioP1;P2;durP2;ratioP2
15254;SDS011;7730;49.610;11.136;2022-07-10T00:02:28;6.43;;;3.00;;
15254;SDS011;7730;49.610;11.136;2022-07-10T00:04:55;6.20;;;2.83;;
15254;SDS011;7730;49.610;11.136;2022-07-10T00:07:22;6.80;;;2.97;;
15254;SDS011;7730;49.610;11.136;2022-07-10T00:09:49;5.28;;;2.92;;
15254;SDS011;7730;49.610;11.136;2022-07-10T00:12:16;5.78;;;2.83;;
15254;SDS011;7730;49.610;11.136;2022-07-10T00:14:43;8.15;;;3.03;;
15254;SDS011;7730;49.610;11.136;2022-07-10T00:17:10;6.30;;;3.10;;
15254;SDS011;7730;49.610;11.136;2022-07-10T00:19:38;6.35;;;3.05;;
15254;SDS011;7730;49.610;11.136;2022-07-10T00:22:05;5.55;;;3.00;;
15254;SDS011;7730;49.610;11.136;2022-07-10T00:24:32;6.63;;;2.95;;
15254;SDS011;7730;49.610;11.136;2022-07-10T00:26:59;5.55;;;3.10;;
15254;SDS011;7730;49.610;11.136;2022-07-10T00:29:26;6.82;;;3.35;;
15254;SDS011;7730;49.610;11.136;2022-07-10T00:31:53;7.68;;;2.90;;
15254;SDS011;7730;49.610;11.136;2022-07-10T00:34:20;7.18;;;3.35;;
15254;SDS011;7730;49.610;11.136;2022-07-10T00:36:49;6.85;;;3.08;;
15254;SDS011;7730;49.610;11.136;2022-07-10T00:39:16;5.60;;;3.05;;
15254;SDS011;7730;49.610;11.136;2022-07-10T00:41:43;4.38;;;2.88;;
15254;SDS011;7730;49.610;11.136;2022-07-10T00:44:10;5.40;;;2.88;;
15254;SDS011;7730;49.610;11.136;2022-07-10T00:46:37;5.95;;;3.17;;
15254;SDS011;7730;49.610;11.136;2022-07-10T00:49:05;5.43;;;3.00;;
15254;SDS011;7730;49.610;11.136;2022-07-10T00:51:33;7.97;;;3.45;;
15254;SDS011;7730;49.610;11.136;2022-07-10T00:54:01;7.20;;;3.33;;
15254;SDS011;7730;49.610;11.136;2022-07-10T00:56:28;5.88;;;3.13;;
15254;SDS011;7730;49.610;11.136;2022-07-10T00:58:56;5.70;;;3.20;;
15254;SDS011;7730;49.610;11.136;2022-07-10T01:01:23;7.60;;;3.33;;
15254;SDS011;7730;49.610;11.136;2022-07-10T01:03:51;5.85;;;3.00;;
15254;SDS011;7730;49.610;11.136;2022-07-10T01:06:18;7.50;;;3.15;;
15254;SDS011;7730;49.610;11.136;2022-07-10T01:08:45;5.13;;;3.08;;
15254;SDS011;7730;49.610;11.136;2022-07-10T01:11:14;7.05;;;2.92;;
15254;SDS011;7730;49.610;11.136;2022-07-10T01:13:41;5.93;;;2.90;;
15254;SDS011;7730;49.610;11.136;2022-07-10T01:16:09;5.90;;;3.25;;
15254;SDS011;7730;49.610;11.136;2022-07-10T01:18:36;6.78;;;3.00;;
15254;SDS011;7730;49.610;11.136;2022-07-10T01:21:05;5.93;;;3.00;;
15254;SDS011;7730;49.610;11.136;2022-07-10T01:23:32;8.25;;;3.28;;
15254;SDS011;7730;49.610;11.136;2022-07-10T01:26:00;4.93;;;2.90;;
15254;SDS011;7730;49.610;11.136;2022-07-10T01:28:27;7.35;;;3.03;;
15254;SDS011;7730;49.610;11.136;2022-07-10T01:30:56;6.35;;;3.05;;
15254;SDS011;7730;49.610;11.136;2022-07-10T01:33:23;6.43;;;3.13;;
15254;SDS011;7730;49.610;11.136;2022-07-10T01:35:51;6.43;;;2.90;;
15254;SDS011;7730;49.610;11.136;2022-07-10T01:38:19;6.90;;;3.17;;
15254;SDS011;7730;49.610;11.136;2022-07-10T01:40:46;7.22;;;3.10;;
15254;SDS011;7730;49.610;11.136;2022-07-10T01:43:13;5.35;;;2.90;;
15254;SDS011;7730;49.610;11.136;2022-07-10T01:45:41;5.57;;;3.10;;
15254;SDS011;7730;49.610;11.136;2022-07-10T01:48:08;9.20;;;3.15;;
15254;SDS011;7730;49.610;11.136;2022-07-10T01:50:35;8.43;;;3.50;;
15254;SDS011;7730;49.610;11.136;2022-07-10T01:53:03;5.72;;;3.20;;
15254;SDS011;7730;49.610;11.136;2022-07-10T01:55:32;6.65;;;3.15;;
15254;SDS011;7730;49.610;11.136;2022-07-10T01:57:59;6.47;;;3.10;;
15254;SDS011;7730;49.610;11.136;2022-07-10T02:00:26;7.65;;;3.35;;
15254;SDS011;7730;49.610;11.136;2022-07-10T02:02:54;7.15;;;3.22;;
15254;SDS011;7730;49.610;11.136;2022-07-10T02:05:38;9.10;;;3.38;;
15254;SDS011;7730;49.610;11.136;2022-07-10T02:08:05;6.50;;;3.38;;
15254;SDS011;7730;49.610;11.136;2022-07-10T02:10:34;6.47;;;3.33;;
15254;SDS011;7730;49.610;11.136;2022-07-10T02:13:01;8.13;;;3.42;;
15254;SDS011;7730;49.610;11.136;2022-07-10T02:15:28;7.70;;;3.10;;
15254;SDS011;7730;49.610;11.136;2022-07-10T02:17:55;8.50;;;3.60;;
15254;SDS011;7730;49.610;11.136;2022-07-10T02:20:22;8.88;;;3.60;;
15254;SDS011;7730;49.610;11.136;2022-07-10T02:22:50;7.80;;;3.60;;
15254;SDS011;7730;49.610;11.136;2022-07-10T02:25:17;9.25;;;3.50;;
15254;SDS011;7730;49.610;11.136;2022-07-10T02:27:45;11.15;;;3.63;;
15254;SDS011;7730;49.610;11.136;2022-07-10T02:30:12;8.35;;;3.47;;
15254;SDS011;7730;49.610;11.136;2022-07-10T02:32:40;6.65;;;3.15;;
15254;SDS011;7730;49.610;11.136;2022-07-10T02:35:07;6.70;;;3.35;;
15254;SDS011;7730;49.610;11.136;2022-07-10T02:37:34;6.97;;;3.30;;
15254;SDS011;7730;49.610;11.136;2022-07-10T02:40:02;9.95;;;3.20;;
15254;SDS011;7730;49.610;11.136;2022-07-10T02:42:29;6.50;;;3.15;;
15254;SDS011;7730;49.610;11.136;2022-07-10T02:44:57;10.85;;;3.22;;
15254;SDS011;7730;49.610;11.136;2022-07-10T02:47:25;8.85;;;3.22;;
15254;SDS011;7730;49.610;11.136;2022-07-10T02:49:52;7.30;;;2.90;;
15254;SDS011;7730;49.610;11.136;2022-07-10T02:52:19;7.60;;;3.00;;
15254;SDS011;7730;49.610;11.136;2022-07-10T02:54:46;8.07;;;3.10;;
15254;SDS011;7730;49.610;11.136;2022-07-10T02:57:15;7.78;;;2.80;;
15254;SDS011;7730;49.610;11.136;2022-07-10T02:59:42;9.18;;;2.80;;
15254;SDS011;7730;49.610;11.136;2022-07-10T03:02:11;8.93;;;2.92;;
15254;SDS011;7730;49.610;11.136;2022-07-10T03:04:38;7.82;;;2.70;;
15254;SDS011;7730;49.610;11.136;2022-07-10T03:07:05;7.93;;;2.80;;
15254;SDS011;7730;49.610;11.136;2022-07-10T03:09:32;7.72;;;2.65;;
15254;SDS011;7730;49.610;11.136;2022-07-10T03:12:00;7.13;;;2.70;;
15254;SDS011;7730;49.610;11.136;2022-07-10T03:14:27;8.27;;;2.67;;
15254;SDS011;7730;49.610;11.136;2022-07-10T03:16:54;8.10;;;2.60;;
15254;SDS011;7730;49.610;11.136;2022-07-10T03:19:22;6.55;;;2.60;;
15254;SDS011;7730;49.610;11.136;2022-07-10T03:21:49;7.05;;;2.38;;
15254;SDS011;7730;49.610;11.136;2022-07-10T03:24:16;6.18;;;2.47;;
15254;SDS011;7730;49.610;11.136;2022-07-10T03:26:43;6.82;;;2.20;;
15254;SDS011;7730;49.610;11.136;2022-07-10T03:29:10;8.13;;;2.08;;
15254;SDS011;7730;49.610;11.136;2022-07-10T03:31:38;7.28;;;2.58;;
15254;SDS011;7730;49.610;11.136;2022-07-10T03:34:05;7.63;;;2.33;;
15254;SDS011;7730;49.610;11.136;2022-07-10T03:36:33;6.35;;;2.25;;
15254;SDS011;7730;49.610;11.136;2022-07-10T03:39:00;7.78;;;2.10;;
15254;SDS011;7730;49.610;11.136;2022-07-10T03:41:27;5.10;;;1.90;;
15254;SDS011;7730;49.610;11.136;2022-07-10T03:43:55;9.18;;;2.20;;
15254;SDS011;7730;49.610;11.136;2022-07-10T03:46:22;8.90;;;2.22;;
15254;SDS011;7730;49.610;11.136;2022-07-10T03:48:49;7.55;;;2.20;;
15254;SDS011;7730;49.610;11.136;2022-07-10T03:51:16;5.30;;;1.92;;
15254;SDS011;7730;49.610;11.136;2022-07-10T03:53:45;5.80;;;2.35;;
15254;SDS011;7730;49.610;11.136;2022-07-10T03:56:12;8.52;;;2.05;;
15254;SDS011;7730;49.610;11.136;2022-07-10T03:58:59;8.07;;;2.20;;
15254;SDS011;7730;49.610;11.136;2022-07-10T04:01:25;7.03;;;2.00;;
15254;SDS011;7730;49.610;11.136;2022-07-10T04:03:53;7.63;;;2.22;;
15254;SDS011;7730;49.610;11.136;2022-07-10T04:06:20;7.35;;;1.95;;
15254;SDS011;7730;49.610;11.136;2022-07-10T04:08:48;8.40;;;2.10;;
15254;SDS011;7730;49.610;11.136;2022-07-10T04:11:15;5.40;;;1.67;;
15254;SDS011;7730;49.610;11.136;2022-07-10T04:13:42;8.75;;;2.30;;
15254;SDS011;7730;49.610;11.136;2022-07-10T04:16:10;7.60;;;2.00;;
15254;SDS011;7730;49.610;11.136;2022-07-10T04:18:38;5.95;;;2.10;;
15254;SDS011;7730;49.610;11.136;2022-07-10T04:21:05;5.20;;;1.92;;
15254;SDS011;7730;49.610;11.136;2022-07-10T04:23:32;8.40;;;2.20;;
15254;SDS011;7730;49.610;11.136;2022-07-10T04:26:01;9.73;;;2.90;;
15254;SDS011;7730;49.610;11.136;2022-07-10T04:28:28;10.48;;;2.38;;
15254;SDS011;7730;49.610;11.136;2022-07-10T04:30:55;6.20;;;1.90;;
15254;SDS011;7730;49.610;11.136;2022-07-10T04:33:22;6.75;;;1.98;;
15254;SDS011;7730;49.610;11.136;2022-07-10T04:35:50;5.57;;;2.00;;
15254;SDS011;7730;49.610;11.136;2022-07-10T04:38:17;4.95;;;1.90;;
15254;SDS011;7730;49.610;11.136;2022-07-10T04:40:44;4.88;;;2.00;;
15254;SDS011;7730;49.610;11.136;2022-07-10T04:43:12;6.85;;;1.90;;
15254;SDS011;7730;49.610;11.136;2022-07-10T04:45:40;7.45;;;2.22;;
15254;SDS011;7730;49.610;11.136;2022-07-10T04:48:07;8.50;;;1.90;;
15254;SDS011;7730;49.610;11.136;2022-07-10T04:50:34;6.88;;;1.90;;
15254;SDS011;7730;49.610;11.136;2022-07-10T04:53:01;6.50;;;1.88;;
15254;SDS011;7730;49.610;11.136;2022-07-10T04:55:28;7.15;;;1.90;;
15254;SDS011;7730;49.610;11.136;2022-07-10T04:57:56;8.50;;;1.83;;
15254;SDS011;7730;49.610;11.136;2022-07-10T05:00:24;5.63;;;1.90;;
15254;SDS011;7730;49.610;11.136;2022-07-10T05:02:51;6.78;;;1.90;;
15254;SDS011;7730;49.610;11.136;2022-07-10T05:05:18;3.75;;;1.50;;
15254;SDS011;7730;49.610;11.136;2022-07-10T05:07:46;5.95;;;1.63;;
15254;SDS011;7730;49.610;11.136;2022-07-10T05:10:13;4.50;;;1.70;;
15254;SDS011;7730;49.610;11.136;2022-07-10T05:12:40;6.25;;;2.00;;
15254;SDS011;7730;49.610;11.136;2022-07-10T05:15:07;5.07;;;1.70;;
15254;SDS011;7730;49.610;11.136;2022-07-10T05:17:36;8.07;;;1.60;;
15254;SDS011;7730;49.610;11.136;2022-07-10T05:20:04;8.48;;;2.33;;
15254;SDS011;7730;49.610;11.136;2022-07-10T05:22:31;5.85;;;1.80;;
15254;SDS011;7730;49.610;11.136;2022-07-10T05:24:58;3.60;;;1.50;;
15254;SDS011;7730;49.610;11.136;2022-07-10T05:27:25;7.82;;;1.67;;
15254;SDS011;7730;49.610;11.136;2022-07-10T05:29:52;6.07;;;1.75;;
15254;SDS011;7730;49.610;11.136;2022-07-10T05:32:19;6.78;;;1.77;;
15254;SDS011;7730;49.610;11.136;2022-07-10T05:34:48;8.50;;;1.70;;
15254;SDS011;7730;49.610;11.136;2022-07-10T05:37:15;6.35;;;1.60;;
15254;SDS011;7730;49.610;11.136;2022-07-10T05:39:42;7.22;;;1.85;;
15254;SDS011;7730;49.610;11.136;2022-07-10T05:42:10;4.75;;;1.60;;
15254;SDS011;7730;49.610;11.136;2022-07-10T05:44:37;4.72;;;1.75;;
15254;SDS011;7730;49.610;11.136;2022-07-10T05:47:04;5.95;;;1.80;;
15254;SDS011;7730;49.610;11.136;2022-07-10T05:49:32;6.60;;;1.90;;
15254;SDS011;7730;49.610;11.136;2022-07-10T05:52:00;6.57;;;1.88;;
15254;SDS011;7730;49.610;11.136;2022-07-10T05:54:27;6.78;;;1.90;;
15254;SDS011;7730;49.610;11.136;2022-07-10T05:56:54;6.97;;;1.83;;
15254;SDS011;7730;49.610;11.136;2022-07-10T05:59:21;5.38;;;1.63;;
15254;SDS011;7730;49.610;11.136;2022-07-10T06:01:49;5.43;;;1.55;;
15254;SDS011;7730;49.610;11.136;2022-07-10T06:04:16;4.47;;;1.67;;
15254;SDS011;7730;49.610;11.136;2022-07-10T06:06:43;5.38;;;1.73;;
15254;SDS011;7730;49.610;11.136;2022-07-10T06:09:13;5.95;;;1.60;;
15254;SDS011;7730;49.610;11.136;2022-07-10T06:11:40;6.38;;;1.70;;
15254;SDS011;7730;49.610;11.136;2022-07-10T06:14:09;6.68;;;1.77;;
15254;SDS011;7730;49.610;11.136;2022-07-10T06:16:36;8.48;;;2.00;;
15254;SDS011;7730;49.610;11.136;2022-07-10T06:19:03;6.72;;;1.60;;
15254;SDS011;7730;49.610;11.136;2022-07-10T06:21:30;5.85;;;1.50;;
15254;SDS011;7730;49.610;11.136;2022-07-10T06:23:57;6.60;;;1.98;;
15254;SDS011;7730;49.610;11.136;2022-07-10T06:26:26;6.15;;;1.65;;
15254;SDS011;7730;49.610;11.136;2022-07-10T06:28:53;4.10;;;1.48;;
15254;SDS011;7730;49.610;11.136;2022-07-10T06:31:20;5.78;;;1.40;;
15254;SDS011;7730;49.610;11.136;2022-07-10T06:33:47;7.05;;;1.83;;
15254;SDS011;7730;49.610;11.136;2022-07-10T06:36:15;5.97;;;1.70;;
15254;SDS011;7730;49.610;11.136;2022-07-10T06:38:42;4.03;;;1.48;;
15254;SDS011;7730;49.610;11.136;2022-07-10T06:41:09;10.95;;;2.10;;
15254;SDS011;7730;49.610;11.136;2022-07-10T06:43:37;7.13;;;1.67;;
15254;SDS011;7730;49.610;11.136;2022-07-10T06:46:05;7.60;;;1.80;;
15254;SDS011;7730;49.610;11.136;2022-07-10T06:48:32;4.63;;;1.50;;
15254;SDS011;7730;49.610;11.136;2022-07-10T06:50:58;5.35;;;1.33;;
15254;SDS011;7730;49.610;11.136;2022-07-10T06:53:25;6.30;;;1.80;;
15254;SDS011;7730;49.610;11.136;2022-07-10T06:55:53;4.95;;;1.50;;
15254;SDS011;7730;49.610;11.136;2022-07-10T06:58:20;5.43;;;1.38;;
15254;SDS011;7730;49.610;11.136;2022-07-10T07:00:48;7.22;;;1.45;;
15254;SDS011;7730;49.610;11.136;2022-07-10T07:03:16;4.88;;;1.52;;
15254;SDS011;7730;49.610;11.136;2022-07-10T07:05:43;8.10;;;1.55;;
15254;SDS011;7730;49.610;11.136;2022-07-10T07:08:10;3.92;;;1.40;;
15254;SDS011;7730;49.610;11.136;2022-07-10T07:10:38;2.85;;;1.17;;
15254;SDS011;7730;49.610;11.136;2022-07-10T07:13:05;5.68;;;1.52;;
15254;SDS011;7730;49.610;11.136;2022-07-10T07:15:34;4.25;;;1.23;;
15254;SDS011;7730;49.610;11.136;2022-07-10T07:18:06;6.88;;;1.30;;
15254;SDS011;7730;49.610;11.136;2022-07-10T07:20:38;5.68;;;1.35;;
15254;SDS011;7730;49.610;11.136;2022-07-10T07:23:23;4.90;;;1.30;;
15254;SDS011;7730;49.610;11.136;2022-07-10T07:25:50;6.63;;;1.30;;
15254;SDS011;7730;49.610;11.136;2022-07-10T07:28:17;5.55;;;1.58;;
15254;SDS011;7730;49.610;11.136;2022-07-10T07:30:45;5.63;;;1.00;;
15254;SDS011;7730;49.610;11.136;2022-07-10T07:33:14;4.43;;;1.20;;
15254;SDS011;7730;49.610;11.136;2022-07-10T07:35:41;5.00;;;1.30;;
15254;SDS011;7730;49.610;11.136;2022-07-10T07:38:09;4.78;;;1.33;;
15254;SDS011;7730;49.610;11.136;2022-07-10T07:40:36;2.78;;;1.15;;
15254;SDS011;7730;49.610;11.136;2022-07-10T07:43:03;3.80;;;1.27;;
15254;SDS011;7730;49.610;11.136;2022-07-10T07:45:30;4.55;;;1.05;;
15254;SDS011;7730;49.610;11.136;2022-07-10T07:47:58;7.07;;;1.20;;
15254;SDS011;7730;49.610;11.136;2022-07-10T07:50:28;5.43;;;1.08;;
15254;SDS011;7730;49.610;11.136;2022-07-10T07:52:57;3.40;;;1.00;;
15254;SDS011;7730;49.610;11.136;2022-07-10T07:55:24;4.53;;;1.00;;
15254;SDS011;7730;49.610;11.136;2022-07-10T07:57:52;3.55;;;0.95;;
15254;SDS011;7730;49.610;11.136;2022-07-10T08:00:19;4.80;;;1.30;;
15254;SDS011;7730;49.610;11.136;2022-07-10T08:02:48;5.15;;;1.30;;
15254;SDS011;7730;49.610;11.136;2022-07-10T08:05:15;2.90;;;1.17;;
15254;SDS011;7730;49.610;11.136;2022-07-10T08:07:45;2.42;;;0.90;;
15254;SDS011;7730;49.610;11.136;2022-07-10T08:10:13;3.30;;;1.00;;
15254;SDS011;7730;49.610;11.136;2022-07-10T08:12:40;4.82;;;1.00;;
15254;SDS011;7730;49.610;11.136;2022-07-10T08:15:08;4.72;;;1.00;;
15254;SDS011;7730;49.610;11.136;2022-07-10T08:17:36;2.60;;;1.20;;
15254;SDS011;7730;49.610;11.136;2022-07-10T08:20:04;3.95;;;0.93;;
15254;SDS011;7730;49.610;11.136;2022-07-10T08:22:31;5.45;;;1.20;;
15254;SDS011;7730;49.610;11.136;2022-07-10T08:25:00;3.55;;;0.82;;
15254;SDS011;7730;49.610;11.136;2022-07-10T08:27:27;1.98;;;1.00;;
15254;SDS011;7730;49.610;11.136;2022-07-10T08:29:54;3.88;;;0.95;;
15254;SDS011;7730;49.610;11.136;2022-07-10T08:32:21;3.85;;;1.00;;
15254;SDS011;7730;49.610;11.136;2022-07-10T08:34:48;4.20;;;1.08;;
15254;SDS011;7730;49.610;11.136;2022-07-10T08:37:16;2.92;;;1.10;;
15254;SDS011;7730;49.610;11.136;2022-07-10T08:39:44;3.05;;;0.75;;
15254;SDS011;7730;49.610;11.136;2022-07-10T08:42:13;3.20;;;0.80;;
15254;SDS011;7730;49.610;11.136;2022-07-10T08:44:42;3.15;;;1.00;;
15254;SDS011;7730;49.610;11.136;2022-07-10T08:47:09;2.90;;;0.93;;
15254;SDS011;7730;49.610;11.136;2022-07-10T08:49:37;1.42;;;0.70;;
15254;SDS011;7730;49.610;11.136;2022-07-10T08:52:05;2.03;;;0.60;;
15254;SDS011;7730;49.610;11.136;2022-07-10T08:54:33;2.72;;;0.73;;
15254;SDS011;7730;49.610;11.136;2022-07-10T08:57:01;3.17;;;0.98;;
15254;SDS011;7730;49.610;11.136;2022-07-10T08:59:30;2.45;;;0.88;;
15254;SDS011;7730;49.610;11.136;2022-07-10T09:01:58;1.70;;;0.70;;
15254;SDS011;7730;49.610;11.136;2022-07-10T09:04:26;1.95;;;0.60;;
15254;SDS011;7730;49.610;11.136;2022-07-10T09:06:54;3.78;;;1.05;;
15254;SDS011;7730;49.610;11.136;2022-07-10T09:09:21;2.50;;;0.77;;
15254;SDS011;7730;49.610;11.136;2022-07-10T09:11:54;2.67;;;0.60;;
15254;SDS011;7730;49.610;11.136;2022-07-10T09:14:21;2.92;;;0.80;;
15254;SDS011;7730;49.610;11.136;2022-07-10T09:16:51;2.90;;;0.70;;
15254;SDS011;7730;49.610;11.136;2022-07-10T09:19:19;1.77;;;0.73;;
15254;SDS011;7730;49.610;11.136;2022-07-10T09:21:47;4.43;;;0.82;;
15254;SDS011;7730;49.610;11.136;2022-07-10T09:24:14;2.35;;;0.88;;
15254;SDS011;7730;49.610;11.136;2022-07-10T09:26:45;3.20;;;0.70;;
15254;SDS011;7730;49.610;11.136;2022-07-10T09:29:14;3.10;;;0.80;;
15254;SDS011;7730;49.610;11.136;2022-07-10T09:31:47;2.47;;;0.60;;
15254;SDS011;7730;49.610;11.136;2022-07-10T09:34:17;2.58;;;0.50;;
15254;SDS011;7730;49.610;11.136;2022-07-10T09:36:44;2.83;;;0.90;;
15254;SDS011;7730;49.610;11.136;2022-07-10T09:39:11;1.63;;;0.60;;
15254;SDS011;7730;49.610;11.136;2022-07-10T09:41:38;2.17;;;0.82;;
15254;SDS011;7730;49.610;11.136;2022-07-10T09:44:06;3.22;;;0.70;;
15254;SDS011;7730;49.610;11.136;2022-07-10T09:46:35;3.60;;;0.80;;
15254;SDS011;7730;49.610;11.136;2022-07-10T09:49:03;1.38;;;0.65;;
15254;SDS011;7730;49.610;11.136;2022-07-10T09:51:32;2.40;;;0.70;;
15254;SDS011;7730;49.610;11.136;2022-07-10T09:54:00;2.67;;;0.80;;
15254;SDS011;7730;49.610;11.136;2022-07-10T09:56:28;3.00;;;0.90;;
15254;SDS011;7730;49.610;11.136;2022-07-10T09:58:57;5.78;;;1.00;;
15254;SDS011;7730;49.610;11.136;2022-07-10T10:01:26;2.30;;;0.82;;
15254;SDS011;7730;49.610;11.136;2022-07-10T10:03:53;1.80;;;0.88;;
15254;SDS011;7730;49.610;11.136;2022-07-10T10:06:23;2.55;;;0.82;;
15254;SDS011;7730;49.610;11.136;2022-07-10T10:08:56;2.03;;;0.90;;
15254;SDS011;7730;49.610;11.136;2022-07-10T10:11:25;4.13;;;0.90;;
15254;SDS011;7730;49.610;11.136;2022-07-10T10:13:53;3.40;;;0.93;;
15254;SDS011;7730;49.610;11.136;2022-07-10T10:16:20;0.90;;;0.80;;
15254;SDS011;7730;49.610;11.136;2022-07-10T10:18:47;2.75;;;0.70;;
15254;SDS011;7730;49.610;11.136;2022-07-10T10:21:28;2.75;;;0.65;;
15254;SDS011;7730;49.610;11.136;2022-07-10T10:23:57;2.40;;;0.93;;
15254;SDS011;7730;49.610;11.136;2022-07-10T10:26:24;6.70;;;1.10;;
15254;SDS011;7730;49.610;11.136;2022-07-10T10:28:52;2.58;;;1.10;;
15254;SDS011;7730;49.610;11.136;2022-07-10T10:31:19;2.20;;;1.10;;
15254;SDS011;7730;49.610;11.136;2022-07-10T10:33:46;5.07;;;1.48;;
15254;SDS011;7730;49.610;11.136;2022-07-10T10:39:16;3.20;;;0.98;;
15254;SDS011;7730;49.610;11.136;2022-07-10T10:41:47;4.47;;;1.10;;
15254;SDS011;7730;49.610;11.136;2022-07-10T10:44:22;3.10;;;1.02;;
15254;SDS011;7730;49.610;11.136;2022-07-10T10:46:54;2.15;;;0.88;;
15254;SDS011;7730;49.610;11.136;2022-07-10T10:49:26;5.13;;;1.17;;
15254;SDS011;7730;49.610;11.136;2022-07-10T10:51:56;5.18;;;1.25;;
15254;SDS011;7730;49.610;11.136;2022-07-10T10:54:25;5.00;;;1.10;;
15254;SDS011;7730;49.610;11.136;2022-07-10T10:59:46;3.75;;;1.00;;
15254;SDS011;7730;49.610;11.136;2022-07-10T11:02:20;3.20;;;1.30;;
15254;SDS011;7730;49.610;11.136;2022-07-10T11:04:48;5.40;;;1.30;;
15254;SDS011;7730;49.610;11.136;2022-07-10T11:15:33;2.97;;;1.10;;
15254;SDS011;7730;49.610;11.136;2022-07-10T11:18:02;3.20;;;0.90;;
15254;SDS011;7730;49.610;11.136;2022-07-10T11:20:31;3.33;;;1.08;;
15254;SDS011;7730;49.610;11.136;2022-07-10T11:23:01;3.60;;;0.88;;
15254;SDS011;7730;49.610;11.136;2022-07-10T11:25:38;3.92;;;1.10;;
15254;SDS011;7730;49.610;11.136;2022-07-10T11:28:09;4.50;;;1.00;;
15254;SDS011;7730;49.610;11.136;2022-07-10T11:30:48;2.22;;;1.13;;
15254;SDS011;7730;49.610;11.136;2022-07-10T11:33:16;5.18;;;2.00;;
15254;SDS011;7730;49.610;11.136;2022-07-10T11:35:46;4.97;;;1.60;;
15254;SDS011;7730;49.610;11.136;2022-07-10T11:38:18;4.25;;;1.25;;
15254;SDS011;7730;49.610;11.136;2022-07-10T11:40:45;3.75;;;1.42;;
15254;SDS011;7730;49.610;11.136;2022-07-10T11:43:12;4.38;;;1.55;;
15254;SDS011;7730;49.610;11.136;2022-07-10T11:45:42;2.38;;;0.93;;
15254;SDS011;7730;49.610;11.136;2022-07-10T11:48:17;2.75;;;1.08;;
15254;SDS011;7730;49.610;11.136;2022-07-10T11:50:45;2.65;;;1.40;;
15254;SDS011;7730;49.610;11.136;2022-07-10T11:53:12;5.22;;;2.25;;
15254;SDS011;7730;49.610;11.136;2022-07-10T11:55:39;4.20;;;1.55;;
15254;SDS011;7730;49.610;11.136;2022-07-10T11:58:16;4.30;;;1.00;;
15254;SDS011;7730;49.610;11.136;2022-07-10T12:00:43;3.63;;;1.00;;
15254;SDS011;7730;49.610;11.136;2022-07-10T12:03:18;2.92;;;0.93;;
15254;SDS011;7730;49.610;11.136;2022-07-10T12:05:46;2.88;;;0.80;;
15254;SDS011;7730;49.610;11.136;2022-07-10T12:08:15;1.98;;;0.80;;
15254;SDS011;7730;49.610;11.136;2022-07-10T12:10:42;0.73;;;0.52;;
15254;SDS011;7730;49.610;11.136;2022-07-10T12:13:11;2.05;;;0.85;;
15254;SDS011;7730;49.610;11.136;2022-07-10T12:15:39;3.78;;;1.10;;
15254;SDS011;7730;49.610;11.136;2022-07-10T12:18:07;7.57;;;1.05;;
15254;SDS011;7730;49.610;11.136;2022-07-10T12:20:35;2.60;;;0.65;;
15254;SDS011;7730;49.610;11.136;2022-07-10T12:23:07;3.83;;;0.95;;
15254;SDS011;7730;49.610;11.136;2022-07-10T12:25:35;1.65;;;0.77;;
15254;SDS011;7730;49.610;11.136;2022-07-10T12:28:02;1.45;;;0.60;;
15254;SDS011;7730;49.610;11.136;2022-07-10T12:30:36;2.20;;;0.80;;
15254;SDS011;7730;49.610;11.136;2022-07-10T12:33:07;3.47;;;0.93;;
15254;SDS011;7730;49.610;11.136;2022-07-10T12:35:46;6.03;;;1.27;;
15254;SDS011;7730;49.610;11.136;2022-07-10T12:38:14;2.60;;;1.10;;
15254;SDS011;7730;49.610;11.136;2022-07-10T12:40:42;3.95;;;1.00;;
15254;SDS011;7730;49.610;11.136;2022-07-10T12:43:09;3.40;;;0.90;;
15254;SDS011;7730;49.610;11.136;2022-07-10T12:45:37;3.35;;;1.00;;
15254;SDS011;7730;49.610;11.136;2022-07-10T12:48:05;3.30;;;1.00;;
15254;SDS011;7730;49.610;11.136;2022-07-10T12:50:32;3.83;;;1.08;;
15254;SDS011;7730;49.610;11.136;2022-07-10T12:53:09;2.92;;;0.70;;
15254;SDS011;7730;49.610;11.136;2022-07-10T12:55:38;3.95;;;1.10;;
15254;SDS011;7730;49.610;11.136;2022-07-10T12:58:07;3.90;;;1.10;;
15254;SDS011;7730;49.610;11.136;2022-07-10T13:00:42;2.25;;;0.77;;
15254;SDS011;7730;49.610;11.136;2022-07-10T13:03:10;2.88;;;0.98;;
15254;SDS011;7730;49.610;11.136;2022-07-10T13:05:40;2.92;;;0.80;;
15254;SDS011;7730;49.610;11.136;2022-07-10T13:08:07;2.78;;;0.93;;
15254;SDS011;7730;49.610;11.136;2022-07-10T13:10:38;5.43;;;1.10;;
15254;SDS011;7730;49.610;11.136;2022-07-10T13:13:06;3.85;;;0.90;;
15254;SDS011;7730;49.610;11.136;2022-07-10T13:15:33;1.70;;;0.80;;
15254;SDS011;7730;49.610;11.136;2022-07-10T13:18:04;3.08;;;1.08;;
15254;SDS011;7730;49.610;11.136;2022-07-10T13:20:32;2.80;;;0.88;;
15254;SDS011;7730;49.610;11.136;2022-07-10T13:22:59;3.45;;;0.88;;
15254;SDS011;7730;49.610;11.136;2022-07-10T13:25:26;2.70;;;0.82;;
15254;SDS011;7730;49.610;11.136;2022-07-10T13:27:55;1.48;;;0.88;;
15254;SDS011;7730;49.610;11.136;2022-07-10T13:30:22;1.73;;;0.80;;
15254;SDS011;7730;49.610;11.136;2022-07-10T13:32:52;2.85;;;0.90;;
15254;SDS011;7730;49.610;11.136;2022-07-10T13:35:20;5.78;;;0.85;;
15254;SDS011;7730;49.610;11.136;2022-07-10T13:37:48;1.65;;;0.90;;
15254;SDS011;7730;49.610;11.136;2022-07-10T13:40:15;4.13;;;0.93;;
15254;SDS011;7730;49.610;11.136;2022-07-10T13:42:42;4.22;;;0.90;;
15254;SDS011;7730;49.610;11.136;2022-07-10T13:45:11;3.33;;;0.90;;
15254;SDS011;7730;49.610;11.136;2022-07-10T13:47:38;1.90;;;0.90;;
15254;SDS011;7730;49.610;11.136;2022-07-10T13:50:06;3.40;;;1.27;;
15254;SDS011;7730;49.610;11.136;2022-07-10T13:52:33;4.47;;;1.00;;
15254;SDS011;7730;49.610;11.136;2022-07-10T13:55:00;6.70;;;1.17;;
15254;SDS011;7730;49.610;11.136;2022-07-10T13:57:29;2.05;;;0.90;;
15254;SDS011;7730;49.610;11.136;2022-07-10T13:59:56;1.20;;;0.60;;
15254;SDS011;7730;49.610;11.136;2022-07-10T14:02:24;2.60;;;0.80;;
15254;SDS011;7730;49.610;11.136;2022-07-10T14:04:52;3.47;;;1.02;;
15254;SDS011;7730;49.610;11.136;2022-07-10T14:07:19;2.92;;;1.05;;
15254;SDS011;7730;49.610;11.136;2022-07-10T14:09:46;4.10;;;1.02;;
15254;SDS011;7730;49.610;11.136;2022-07-10T14:12:13;4.82;;;1.08;;
15254;SDS011;7730;49.610;11.136;2022-07-10T14:14:41;3.95;;;1.30;;
15254;SDS011;7730;49.610;11.136;2022-07-10T14:17:08;3.70;;;1.00;;
15254;SDS011;7730;49.610;11.136;2022-07-10T14:19:37;3.38;;;1.27;;
15254;SDS011;7730;49.610;11.136;2022-07-10T14:22:06;5.65;;;1.35;;
15254;SDS011;7730;49.610;11.136;2022-07-10T14:24:33;4.07;;;1.05;;
15254;SDS011;7730;49.610;11.136;2022-07-10T14:27:00;3.28;;;1.10;;
15254;SDS011;7730;49.610;11.136;2022-07-10T14:29:28;2.90;;;0.98;;
15254;SDS011;7730;49.610;11.136;2022-07-10T14:31:55;3.55;;;1.20;;
15254;SDS011;7730;49.610;11.136;2022-07-10T14:34:23;8.60;;;1.33;;
15254;SDS011;7730;49.610;11.136;2022-07-10T14:36:51;2.15;;;1.02;;
15254;SDS011;7730;49.610;11.136;2022-07-10T14:39:19;3.47;;;1.20;;
15254;SDS011;7730;49.610;11.136;2022-07-10T14:41:46;3.03;;;1.13;;
15254;SDS011;7730;49.610;11.136;2022-07-10T14:44:13;4.60;;;1.13;;
15254;SDS011;7730;49.610;11.136;2022-07-10T14:46:40;1.05;;;0.68;;
15254;SDS011;7730;49.610;11.136;2022-07-10T14:49:08;3.30;;;1.00;;
15254;SDS011;7730;49.610;11.136;2022-07-10T14:51:35;4.00;;;1.13;;
15254;SDS011;7730;49.610;11.136;2022-07-10T14:54:05;2.55;;;1.13;;
15254;SDS011;7730;49.610;11.136;2022-07-10T14:56:33;3.92;;;1.15;;
15254;SDS011;7730;49.610;11.136;2022-07-10T14:59:00;3.40;;;1.20;;
15254;SDS011;7730;49.610;11.136;2022-07-10T15:01:27;3.50;;;1.20;;
15254;SDS011;7730;49.610;11.136;2022-07-10T15:03:54;4.22;;;1.00;;
15254;SDS011;7730;49.610;11.136;2022-07-10T15:06:23;4.18;;;1.20;;
15254;SDS011;7730;49.610;11.136;2022-07-10T15:08:50;5.95;;;1.33;;